sensor_id;sensor_type;location;lat;lon;timestamp;P1;durP1;ratioP1;P2;durP2;ratioP2
37051;SDS011;22964;52.272;13.356;2024-03-22T00:00:07;9.52;;;6.03;;
37051;SDS011;22964;52.272;13.356;2024-03-22T00:02:39;10.05;;;6.15;;
37051;SDS011;22964;52.272;13.356;2024-03-22T00:05:05;9.82;;;5.95;;
37051;SDS011;22964;52.272;13.356;2024-03-22T00:07:30;12.00;;;6.03;;
37051;SDS011;22964;52.272;13.356;2024-03-22T00:09:56;10.05;;;6.43;;
37051;SDS011;22964;52.272;13.356;2024-03-22T00:12:22;10.85;;;6.18;;
37051;SDS011;22964;52.272;13.356;2024-03-22T00:14:48;11.52;;;6.05;;
37051;SDS011;22964;52.272;13.356;2024-03-22T00:17:16;10.77;;;6.45;;
37051;SDS011;22964;52.272;13.356;2024-03-22T00:19:42;8.98;;;5.78;;
37051;SDS011;22964;52.272;13.356;2024-03-22T00:22:08;9.10;;;5.88;;
37051;SDS011;22964;52.272;13.356;2024-03-22T00:24:34;9.05;;;5.90;;
37051;SDS011;22964;52.272;13.356;2024-03-22T00:27:00;10.40;;;6.18;;
37051;SDS011;22964;52.272;13.356;2024-03-22T00:29:25;9.10;;;5.57;;
37051;SDS011;22964;52.272;13.356;2024-03-22T00:31:52;8.70;;;5.10;;
37051;SDS011;22964;52.272;13.356;2024-03-22T00:34:17;9.00;;;5.78;;
37051;SDS011;22964;52.272;13.356;2024-03-22T00:36:44;9.63;;;6.05;;
37051;SDS011;22964;52.272;13.356;2024-03-22T00:39:11;10.43;;;5.65;;
37051;SDS011;22964;52.272;13.356;2024-03-22T00:41:37;9.18;;;5.50;;
37051;SDS011;22964;52.272;13.356;2024-03-22T00:44:04;8.93;;;5.88;;
37051;SDS011;22964;52.272;13.356;2024-03-22T00:46:29;9.07;;;5.88;;
37051;SDS011;22964;52.272;13.356;2024-03-22T00:48:56;9.52;;;6.10;;
37051;SDS011;22964;52.272;13.356;2024-03-22T00:51:23;9.45;;;5.75;;
37051;SDS011;22964;52.272;13.356;2024-03-22T00:53:50;9.43;;;5.57;;
37051;SDS011;22964;52.272;13.356;2024-03-22T00:56:16;9.63;;;6.07;;
37051;SDS011;22964;52.272;13.356;2024-03-22T00:58:42;11.75;;;6.13;;
37051;SDS011;22964;52.272;13.356;2024-03-22T01:01:07;10.02;;;6.20;;
37051;SDS011;22964;52.272;13.356;2024-03-22T01:03:33;10.07;;;6.43;;
37051;SDS011;22964;52.272;13.356;2024-03-22T01:05:59;9.52;;;5.97;;
37051;SDS011;22964;52.272;13.356;2024-03-22T01:08:24;9.18;;;6.03;;
37051;SDS011;22964;52.272;13.356;2024-03-22T01:10:50;8.55;;;5.75;;
37051;SDS011;22964;52.272;13.356;2024-03-22T01:13:16;8.80;;;6.00;;
37051;SDS011;22964;52.272;13.356;2024-03-22T01:15:42;10.40;;;6.20;;
37051;SDS011;22964;52.272;13.356;2024-03-22T01:18:08;9.30;;;5.85;;
37051;SDS011;22964;52.272;13.356;2024-03-22T01:20:34;10.98;;;6.40;;
37051;SDS011;22964;52.272;13.356;2024-03-22T01:22:59;9.95;;;5.80;;
37051;SDS011;22964;52.272;13.356;2024-03-22T01:25:26;10.73;;;6.65;;
37051;SDS011;22964;52.272;13.356;2024-03-22T01:27:52;10.05;;;6.22;;
37051;SDS011;22964;52.272;13.356;2024-03-22T01:30:18;9.85;;;6.25;;
37051;SDS011;22964;52.272;13.356;2024-03-22T01:32:43;10.60;;;6.32;;
37051;SDS011;22964;52.272;13.356;2024-03-22T01:35:09;11.10;;;6.43;;
37051;SDS011;22964;52.272;13.356;2024-03-22T01:37:35;10.65;;;6.40;;
37051;SDS011;22964;52.272;13.356;2024-03-22T01:40:01;9.68;;;5.95;;
37051;SDS011;22964;52.272;13.356;2024-03-22T01:42:28;10.60;;;6.10;;
37051;SDS011;22964;52.272;13.356;2024-03-22T01:44:53;10.50;;;6.18;;
37051;SDS011;22964;52.272;13.356;2024-03-22T01:47:19;10.35;;;6.55;;
37051;SDS011;22964;52.272;13.356;2024-03-22T01:49:45;12.75;;;6.63;;
37051;SDS011;22964;52.272;13.356;2024-03-22T01:52:11;10.30;;;6.28;;
37051;SDS011;22964;52.272;13.356;2024-03-22T01:54:37;11.52;;;6.40;;
37051;SDS011;22964;52.272;13.356;2024-03-22T01:57:02;10.23;;;6.18;;
37051;SDS011;22964;52.272;13.356;2024-03-22T01:59:28;10.07;;;6.40;;
37051;SDS011;22964;52.272;13.356;2024-03-22T02:01:55;11.10;;;6.47;;
37051;SDS011;22964;52.272;13.356;2024-03-22T02:04:21;9.65;;;5.97;;
37051;SDS011;22964;52.272;13.356;2024-03-22T02:06:47;10.82;;;6.10;;
37051;SDS011;22964;52.272;13.356;2024-03-22T02:09:12;10.38;;;6.25;;
37051;SDS011;22964;52.272;13.356;2024-03-22T02:11:40;11.35;;;6.20;;
37051;SDS011;22964;52.272;13.356;2024-03-22T02:14:05;10.25;;;6.38;;
37051;SDS011;22964;52.272;13.356;2024-03-22T02:16:31;10.23;;;6.50;;
37051;SDS011;22964;52.272;13.356;2024-03-22T02:18:57;11.18;;;6.97;;
37051;SDS011;22964;52.272;13.356;2024-03-22T02:21:22;11.05;;;6.53;;
37051;SDS011;22964;52.272;13.356;2024-03-22T02:23:48;15.60;;;6.82;;
37051;SDS011;22964;52.272;13.356;2024-03-22T02:26:14;10.30;;;6.63;;
37051;SDS011;22964;52.272;13.356;2024-03-22T02:28:39;11.23;;;6.28;;
37051;SDS011;22964;52.272;13.356;2024-03-22T02:31:05;10.65;;;6.78;;
37051;SDS011;22964;52.272;13.356;2024-03-22T02:33:31;12.18;;;7.30;;
37051;SDS011;22964;52.272;13.356;2024-03-22T02:35:57;11.38;;;6.43;;
37051;SDS011;22964;52.272;13.356;2024-03-22T02:38:23;11.35;;;6.68;;
37051;SDS011;22964;52.272;13.356;2024-03-22T02:40:51;10.65;;;6.40;;
37051;SDS011;22964;52.272;13.356;2024-03-22T02:43:17;10.32;;;6.60;;
37051;SDS011;22964;52.272;13.356;2024-03-22T02:45:44;11.45;;;6.57;;
37051;SDS011;22964;52.272;13.356;2024-03-22T02:48:11;10.50;;;6.30;;
37051;SDS011;22964;52.272;13.356;2024-03-22T02:50:37;12.30;;;6.75;;
37051;SDS011;22964;52.272;13.356;2024-03-22T02:53:02;10.85;;;6.32;;
37051;SDS011;22964;52.272;13.356;2024-03-22T02:55:28;12.27;;;7.03;;
37051;SDS011;22964;52.272;13.356;2024-03-22T02:57:55;12.02;;;7.05;;
37051;SDS011;22964;52.272;13.356;2024-03-22T03:00:22;10.32;;;6.45;;
37051;SDS011;22964;52.272;13.356;2024-03-22T03:02:47;12.27;;;6.63;;
37051;SDS011;22964;52.272;13.356;2024-03-22T03:05:13;14.00;;;7.20;;
37051;SDS011;22964;52.272;13.356;2024-03-22T03:07:39;13.90;;;7.25;;
37051;SDS011;22964;52.272;13.356;2024-03-22T03:10:05;11.68;;;6.95;;
37051;SDS011;22964;52.272;13.356;2024-03-22T03:12:32;12.73;;;7.35;;
37051;SDS011;22964;52.272;13.356;2024-03-22T03:14:57;14.52;;;7.28;;
37051;SDS011;22964;52.272;13.356;2024-03-22T03:17:23;13.43;;;7.25;;
37051;SDS011;22964;52.272;13.356;2024-03-22T03:19:49;16.13;;;7.43;;
37051;SDS011;22964;52.272;13.356;2024-03-22T03:22:15;14.55;;;8.35;;
37051;SDS011;22964;52.272;13.356;2024-03-22T03:24:41;15.82;;;8.40;;
37051;SDS011;22964;52.272;13.356;2024-03-22T03:27:06;14.93;;;7.28;;
37051;SDS011;22964;52.272;13.356;2024-03-22T03:29:32;14.52;;;7.47;;
37051;SDS011;22964;52.272;13.356;2024-03-22T03:31:58;14.57;;;7.53;;
37051;SDS011;22964;52.272;13.356;2024-03-22T03:34:24;14.20;;;7.78;;
37051;SDS011;22964;52.272;13.356;2024-03-22T03:36:49;14.85;;;7.55;;
37051;SDS011;22964;52.272;13.356;2024-03-22T03:39:15;15.50;;;7.97;;
37051;SDS011;22964;52.272;13.356;2024-03-22T03:41:41;15.93;;;8.23;;
37051;SDS011;22964;52.272;13.356;2024-03-22T03:44:06;14.70;;;7.47;;
37051;SDS011;22964;52.272;13.356;2024-03-22T03:46:32;14.35;;;7.50;;
37051;SDS011;22964;52.272;13.356;2024-03-22T03:48:58;14.32;;;7.50;;
37051;SDS011;22964;52.272;13.356;2024-03-22T03:51:23;12.95;;;7.03;;
37051;SDS011;22964;52.272;13.356;2024-03-22T03:53:49;12.48;;;6.93;;
37051;SDS011;22964;52.272;13.356;2024-03-22T03:56:15;11.55;;;6.32;;
37051;SDS011;22964;52.272;13.356;2024-03-22T03:58:41;14.00;;;7.07;;
37051;SDS011;22964;52.272;13.356;2024-03-22T04:01:09;11.38;;;6.63;;
37051;SDS011;22964;52.272;13.356;2024-03-22T04:03:35;11.65;;;6.40;;
37051;SDS011;22964;52.272;13.356;2024-03-22T04:06:01;12.68;;;6.22;;
37051;SDS011;22964;52.272;13.356;2024-03-22T04:08:27;11.02;;;6.68;;
37051;SDS011;22964;52.272;13.356;2024-03-22T04:10:54;14.52;;;6.97;;
37051;SDS011;22964;52.272;13.356;2024-03-22T04:13:22;12.48;;;6.75;;
37051;SDS011;22964;52.272;13.356;2024-03-22T04:15:48;11.48;;;6.55;;
37051;SDS011;22964;52.272;13.356;2024-03-22T04:18:14;11.88;;;6.43;;
37051;SDS011;22964;52.272;13.356;2024-03-22T04:20:40;11.05;;;6.18;;
37051;SDS011;22964;52.272;13.356;2024-03-22T04:23:06;11.52;;;6.57;;
37051;SDS011;22964;52.272;13.356;2024-03-22T04:25:31;14.13;;;6.15;;
37051;SDS011;22964;52.272;13.356;2024-03-22T04:27:57;10.65;;;6.18;;
37051;SDS011;22964;52.272;13.356;2024-03-22T04:30:23;12.48;;;6.40;;
37051;SDS011;22964;52.272;13.356;2024-03-22T04:32:48;12.18;;;6.45;;
37051;SDS011;22964;52.272;13.356;2024-03-22T04:35:14;10.52;;;6.25;;
37051;SDS011;22964;52.272;13.356;2024-03-22T04:37:40;12.00;;;6.40;;
37051;SDS011;22964;52.272;13.356;2024-03-22T04:40:06;11.73;;;6.30;;
37051;SDS011;22964;52.272;13.356;2024-03-22T04:42:32;12.55;;;6.75;;
37051;SDS011;22964;52.272;13.356;2024-03-22T04:44:57;11.82;;;6.53;;
37051;SDS011;22964;52.272;13.356;2024-03-22T04:47:23;10.88;;;6.43;;
37051;SDS011;22964;52.272;13.356;2024-03-22T04:49:49;11.02;;;6.20;;
37051;SDS011;22964;52.272;13.356;2024-03-22T04:52:15;11.55;;;6.57;;
37051;SDS011;22964;52.272;13.356;2024-03-22T04:54:40;12.75;;;6.28;;
37051;SDS011;22964;52.272;13.356;2024-03-22T04:57:06;11.27;;;6.40;;
37051;SDS011;22964;52.272;13.356;2024-03-22T04:59:31;12.20;;;6.57;;
37051;SDS011;22964;52.272;13.356;2024-03-22T05:01:57;12.10;;;6.22;;
37051;SDS011;22964;52.272;13.356;2024-03-22T05:04:23;11.30;;;6.30;;
37051;SDS011;22964;52.272;13.356;2024-03-22T05:06:49;12.88;;;6.88;;
37051;SDS011;22964;52.272;13.356;2024-03-22T05:09:14;11.40;;;6.55;;
37051;SDS011;22964;52.272;13.356;2024-03-22T05:11:40;11.20;;;6.65;;
37051;SDS011;22964;52.272;13.356;2024-03-22T05:14:06;14.60;;;6.40;;
37051;SDS011;22964;52.272;13.356;2024-03-22T05:16:32;13.02;;;6.20;;
37051;SDS011;22964;52.272;13.356;2024-03-22T05:18:57;11.02;;;6.07;;
37051;SDS011;22964;52.272;13.356;2024-03-22T05:21:23;12.32;;;6.57;;
37051;SDS011;22964;52.272;13.356;2024-03-22T05:23:49;11.57;;;6.28;;
37051;SDS011;22964;52.272;13.356;2024-03-22T05:26:15;11.82;;;6.20;;
37051;SDS011;22964;52.272;13.356;2024-03-22T05:28:41;11.20;;;6.22;;
37051;SDS011;22964;52.272;13.356;2024-03-22T05:31:06;13.07;;;6.20;;
37051;SDS011;22964;52.272;13.356;2024-03-22T05:33:32;11.43;;;6.20;;
37051;SDS011;22964;52.272;13.356;2024-03-22T05:35:58;11.32;;;6.30;;
37051;SDS011;22964;52.272;13.356;2024-03-22T05:38:24;10.23;;;6.20;;
37051;SDS011;22964;52.272;13.356;2024-03-22T05:40:50;10.73;;;6.28;;
37051;SDS011;22964;52.272;13.356;2024-03-22T05:43:15;11.00;;;6.10;;
37051;SDS011;22964;52.272;13.356;2024-03-22T05:45:41;12.63;;;6.90;;
37051;SDS011;22964;52.272;13.356;2024-03-22T05:48:07;11.48;;;7.20;;
37051;SDS011;22964;52.272;13.356;2024-03-22T05:50:33;11.85;;;6.85;;
37051;SDS011;22964;52.272;13.356;2024-03-22T05:52:58;13.55;;;7.35;;
37051;SDS011;22964;52.272;13.356;2024-03-22T05:55:24;12.55;;;7.00;;
37051;SDS011;22964;52.272;13.356;2024-03-22T05:57:52;12.48;;;7.15;;
37051;SDS011;22964;52.272;13.356;2024-03-22T06:00:18;13.32;;;7.63;;
37051;SDS011;22964;52.272;13.356;2024-03-22T06:02:44;12.63;;;7.55;;
37051;SDS011;22964;52.272;13.356;2024-03-22T06:05:09;12.25;;;7.50;;
37051;SDS011;22964;52.272;13.356;2024-03-22T06:07:35;12.75;;;7.30;;
37051;SDS011;22964;52.272;13.356;2024-03-22T06:10:07;11.70;;;7.07;;
37051;SDS011;22964;52.272;13.356;2024-03-22T06:12:34;10.93;;;7.22;;
37051;SDS011;22964;52.272;13.356;2024-03-22T06:15:00;16.75;;;7.85;;
37051;SDS011;22964;52.272;13.356;2024-03-22T06:17:26;12.63;;;7.70;;
37051;SDS011;22964;52.272;13.356;2024-03-22T06:19:52;14.35;;;7.85;;
37051;SDS011;22964;52.272;13.356;2024-03-22T06:22:18;12.85;;;7.78;;
37051;SDS011;22964;52.272;13.356;2024-03-22T06:24:44;14.70;;;7.72;;
37051;SDS011;22964;52.272;13.356;2024-03-22T06:27:10;13.90;;;7.80;;
37051;SDS011;22964;52.272;13.356;2024-03-22T06:29:35;14.27;;;8.05;;
37051;SDS011;22964;52.272;13.356;2024-03-22T06:32:01;12.20;;;7.18;;
37051;SDS011;22964;52.272;13.356;2024-03-22T06:34:27;15.52;;;8.05;;
37051;SDS011;22964;52.272;13.356;2024-03-22T06:36:53;13.30;;;7.57;;
37051;SDS011;22964;52.272;13.356;2024-03-22T06:39:18;15.90;;;8.32;;
37051;SDS011;22964;52.272;13.356;2024-03-22T06:41:45;12.18;;;7.25;;
37051;SDS011;22964;52.272;13.356;2024-03-22T06:44:10;13.32;;;7.70;;
37051;SDS011;22964;52.272;13.356;2024-03-22T06:46:37;13.95;;;8.05;;
37051;SDS011;22964;52.272;13.356;2024-03-22T06:49:03;14.18;;;8.52;;
37051;SDS011;22964;52.272;13.356;2024-03-22T06:51:28;14.90;;;9.05;;
37051;SDS011;22964;52.272;13.356;2024-03-22T06:53:54;15.02;;;8.52;;
37051;SDS011;22964;52.272;13.356;2024-03-22T06:56:20;13.93;;;8.00;;
37051;SDS011;22964;52.272;13.356;2024-03-22T06:58:46;14.35;;;8.27;;
37051;SDS011;22964;52.272;13.356;2024-03-22T07:01:11;13.60;;;7.80;;
37051;SDS011;22964;52.272;13.356;2024-03-22T07:03:37;15.43;;;8.25;;
37051;SDS011;22964;52.272;13.356;2024-03-22T07:06:03;14.52;;;8.35;;
37051;SDS011;22964;52.272;13.356;2024-03-22T07:08:31;14.00;;;8.45;;
37051;SDS011;22964;52.272;13.356;2024-03-22T07:10:57;14.05;;;8.50;;
37051;SDS011;22964;52.272;13.356;2024-03-22T07:13:22;14.52;;;7.97;;
37051;SDS011;22964;52.272;13.356;2024-03-22T07:15:48;14.88;;;8.75;;
37051;SDS011;22964;52.272;13.356;2024-03-22T07:18:14;14.70;;;8.57;;
37051;SDS011;22964;52.272;13.356;2024-03-22T07:20:41;13.50;;;8.63;;
37051;SDS011;22964;52.272;13.356;2024-03-22T07:23:07;15.32;;;8.27;;
37051;SDS011;22964;52.272;13.356;2024-03-22T07:25:33;13.98;;;8.55;;
37051;SDS011;22964;52.272;13.356;2024-03-22T07:27:59;14.80;;;8.57;;
37051;SDS011;22964;52.272;13.356;2024-03-22T07:30:25;14.70;;;8.60;;
37051;SDS011;22964;52.272;13.356;2024-03-22T07:32:50;14.57;;;8.80;;
37051;SDS011;22964;52.272;13.356;2024-03-22T07:35:16;13.27;;;8.05;;
37051;SDS011;22964;52.272;13.356;2024-03-22T07:37:42;13.80;;;8.27;;
37051;SDS011;22964;52.272;13.356;2024-03-22T07:40:07;14.93;;;8.07;;
37051;SDS011;22964;52.272;13.356;2024-03-22T07:42:33;12.63;;;7.88;;
37051;SDS011;22964;52.272;13.356;2024-03-22T07:44:59;14.73;;;8.52;;
37051;SDS011;22964;52.272;13.356;2024-03-22T07:47:25;14.13;;;8.20;;
37051;SDS011;22964;52.272;13.356;2024-03-22T07:49:51;14.00;;;7.80;;
37051;SDS011;22964;52.272;13.356;2024-03-22T07:52:16;16.33;;;8.25;;
37051;SDS011;22964;52.272;13.356;2024-03-22T07:54:42;15.45;;;8.43;;
37051;SDS011;22964;52.272;13.356;2024-03-22T07:57:08;14.80;;;8.20;;
37051;SDS011;22964;52.272;13.356;2024-03-22T07:59:35;13.63;;;8.25;;
37051;SDS011;22964;52.272;13.356;2024-03-22T08:02:01;12.32;;;7.13;;
37051;SDS011;22964;52.272;13.356;2024-03-22T08:04:28;13.85;;;8.05;;
37051;SDS011;22964;52.272;13.356;2024-03-22T08:06:54;13.82;;;8.13;;
37051;SDS011;22964;52.272;13.356;2024-03-22T08:09:20;13.32;;;8.15;;
37051;SDS011;22964;52.272;13.356;2024-03-22T08:11:46;13.07;;;7.63;;
37051;SDS011;22964;52.272;13.356;2024-03-22T08:14:13;15.60;;;7.60;;
37051;SDS011;22964;52.272;13.356;2024-03-22T08:16:38;13.43;;;7.90;;
37051;SDS011;22964;52.272;13.356;2024-03-22T08:19:04;13.18;;;7.65;;
37051;SDS011;22964;52.272;13.356;2024-03-22T08:21:30;14.45;;;7.88;;
37051;SDS011;22964;52.272;13.356;2024-03-22T08:23:56;13.13;;;7.80;;
37051;SDS011;22964;52.272;13.356;2024-03-22T08:26:21;12.82;;;8.48;;
37051;SDS011;22964;52.272;13.356;2024-03-22T08:28:47;12.57;;;7.32;;
37051;SDS011;22964;52.272;13.356;2024-03-22T08:31:13;11.77;;;7.25;;
37051;SDS011;22964;52.272;13.356;2024-03-22T08:33:39;13.82;;;7.63;;
37051;SDS011;22964;52.272;13.356;2024-03-22T08:36:05;12.68;;;7.65;;
37051;SDS011;22964;52.272;13.356;2024-03-22T08:38:31;12.15;;;7.55;;
37051;SDS011;22964;52.272;13.356;2024-03-22T08:40:58;14.05;;;7.95;;
37051;SDS011;22964;52.272;13.356;2024-03-22T08:43:24;11.98;;;7.35;;
37051;SDS011;22964;52.272;13.356;2024-03-22T08:45:51;11.80;;;7.25;;
37051;SDS011;22964;52.272;13.356;2024-03-22T08:48:17;13.73;;;7.63;;
37051;SDS011;22964;52.272;13.356;2024-03-22T08:50:43;12.02;;;7.90;;
37051;SDS011;22964;52.272;13.356;2024-03-22T08:53:10;11.85;;;7.60;;
37051;SDS011;22964;52.272;13.356;2024-03-22T08:55:35;11.25;;;7.38;;
37051;SDS011;22964;52.272;13.356;2024-03-22T08:58:02;12.60;;;7.40;;
37051;SDS011;22964;52.272;13.356;2024-03-22T09:00:29;11.38;;;7.05;;
37051;SDS011;22964;52.272;13.356;2024-03-22T09:02:54;12.55;;;7.85;;
37051;SDS011;22964;52.272;13.356;2024-03-22T09:05:20;12.73;;;7.85;;
37051;SDS011;22964;52.272;13.356;2024-03-22T09:07:46;12.45;;;7.47;;
37051;SDS011;22964;52.272;13.356;2024-03-22T09:10:13;11.93;;;7.03;;
37051;SDS011;22964;52.272;13.356;2024-03-22T09:12:39;11.95;;;7.18;;
37051;SDS011;22964;52.272;13.356;2024-03-22T09:15:05;12.27;;;7.57;;
37051;SDS011;22964;52.272;13.356;2024-03-22T09:17:32;11.50;;;7.38;;
37051;SDS011;22964;52.272;13.356;2024-03-22T09:19:58;12.60;;;7.30;;
37051;SDS011;22964;52.272;13.356;2024-03-22T09:22:24;12.35;;;7.05;;
37051;SDS011;22964;52.272;13.356;2024-03-22T09:24:49;13.88;;;7.82;;
37051;SDS011;22964;52.272;13.356;2024-03-22T09:27:15;11.70;;;7.32;;
37051;SDS011;22964;52.272;13.356;2024-03-22T09:29:41;11.98;;;7.47;;
37051;SDS011;22964;52.272;13.356;2024-03-22T09:32:08;11.93;;;7.20;;
37051;SDS011;22964;52.272;13.356;2024-03-22T09:34:34;10.35;;;7.05;;
37051;SDS011;22964;52.272;13.356;2024-03-22T09:37:00;12.05;;;7.43;;
37051;SDS011;22964;52.272;13.356;2024-03-22T09:39:26;12.70;;;7.47;;
37051;SDS011;22964;52.272;13.356;2024-03-22T09:41:52;11.88;;;7.20;;
37051;SDS011;22964;52.272;13.356;2024-03-22T09:44:22;11.50;;;7.07;;
37051;SDS011;22964;52.272;13.356;2024-03-22T09:46:48;11.52;;;7.40;;
37051;SDS011;22964;52.272;13.356;2024-03-22T09:49:16;11.73;;;7.15;;
37051;SDS011;22964;52.272;13.356;2024-03-22T09:51:43;11.45;;;7.20;;
37051;SDS011;22964;52.272;13.356;2024-03-22T09:54:09;13.73;;;7.05;;
37051;SDS011;22964;52.272;13.356;2024-03-22T09:56:38;11.02;;;7.05;;
37051;SDS011;22964;52.272;13.356;2024-03-22T09:59:04;11.32;;;7.18;;
37051;SDS011;22964;52.272;13.356;2024-03-22T10:01:32;11.75;;;7.20;;
37051;SDS011;22964;52.272;13.356;2024-03-22T10:03:59;10.38;;;6.75;;
37051;SDS011;22964;52.272;13.356;2024-03-22T10:06:25;13.35;;;7.28;;
37051;SDS011;22964;52.272;13.356;2024-03-22T10:08:51;10.75;;;6.57;;
37051;SDS011;22964;52.272;13.356;2024-03-22T10:11:17;12.32;;;7.30;;
37051;SDS011;22964;52.272;13.356;2024-03-22T10:13:43;10.75;;;7.10;;
37051;SDS011;22964;52.272;13.356;2024-03-22T10:16:11;12.25;;;6.93;;
37051;SDS011;22964;52.272;13.356;2024-03-22T10:18:37;12.85;;;7.05;;
37051;SDS011;22964;52.272;13.356;2024-03-22T10:21:06;10.38;;;6.63;;
37051;SDS011;22964;52.272;13.356;2024-03-22T10:23:31;12.40;;;6.95;;
37051;SDS011;22964;52.272;13.356;2024-03-22T10:25:58;11.25;;;7.10;;
37051;SDS011;22964;52.272;13.356;2024-03-22T10:28:27;16.63;;;7.70;;
37051;SDS011;22964;52.272;13.356;2024-03-22T10:30:53;11.98;;;7.05;;
37051;SDS011;22964;52.272;13.356;2024-03-22T10:33:19;10.82;;;6.80;;
37051;SDS011;22964;52.272;13.356;2024-03-22T10:35:54;12.10;;;7.45;;
37051;SDS011;22964;52.272;13.356;2024-03-22T10:38:20;12.40;;;7.00;;
37051;SDS011;22964;52.272;13.356;2024-03-22T10:40:46;14.55;;;8.05;;
37051;SDS011;22964;52.272;13.356;2024-03-22T10:43:13;11.98;;;7.22;;
37051;SDS011;22964;52.272;13.356;2024-03-22T10:45:40;16.20;;;8.27;;
37051;SDS011;22964;52.272;13.356;2024-03-22T10:48:10;15.57;;;7.97;;
37051;SDS011;22964;52.272;13.356;2024-03-22T10:50:40;13.77;;;7.95;;
37051;SDS011;22964;52.272;13.356;2024-03-22T10:53:15;12.68;;;7.63;;
37051;SDS011;22964;52.272;13.356;2024-03-22T10:55:46;15.88;;;7.85;;
37051;SDS011;22964;52.272;13.356;2024-03-22T10:58:14;15.18;;;8.40;;
37051;SDS011;22964;52.272;13.356;2024-03-22T11:00:46;14.68;;;8.32;;
37051;SDS011;22964;52.272;13.356;2024-03-22T11:03:13;14.02;;;7.88;;
37051;SDS011;22964;52.272;13.356;2024-03-22T11:05:48;12.77;;;7.82;;
37051;SDS011;22964;52.272;13.356;2024-03-22T11:08:28;13.50;;;8.30;;
37051;SDS011;22964;52.272;13.356;2024-03-22T11:11:08;14.38;;;8.02;;
37051;SDS011;22964;52.272;13.356;2024-03-22T11:13:38;17.20;;;8.30;;
37051;SDS011;22964;52.272;13.356;2024-03-22T11:16:04;16.30;;;8.55;;
37051;SDS011;22964;52.272;13.356;2024-03-22T11:18:30;14.13;;;8.38;;
37051;SDS011;22964;52.272;13.356;2024-03-22T11:20:57;14.70;;;8.77;;
37051;SDS011;22964;52.272;13.356;2024-03-22T11:23:22;13.32;;;8.02;;
37051;SDS011;22964;52.272;13.356;2024-03-22T11:25:48;13.15;;;8.32;;
37051;SDS011;22964;52.272;13.356;2024-03-22T11:28:14;15.35;;;8.57;;
37051;SDS011;22964;52.272;13.356;2024-03-22T11:30:40;14.40;;;8.50;;
37051;SDS011;22964;52.272;13.356;2024-03-22T11:33:06;13.50;;;7.82;;
37051;SDS011;22964;52.272;13.356;2024-03-22T11:35:33;13.95;;;7.82;;
37051;SDS011;22964;52.272;13.356;2024-03-22T11:37:59;16.35;;;8.38;;
37051;SDS011;22964;52.272;13.356;2024-03-22T11:40:25;15.32;;;8.18;;
37051;SDS011;22964;52.272;13.356;2024-03-22T11:42:52;15.18;;;8.60;;
37051;SDS011;22964;52.272;13.356;2024-03-22T11:45:20;13.57;;;8.30;;
37051;SDS011;22964;52.272;13.356;2024-03-22T11:47:47;14.50;;;7.93;;
37051;SDS011;22964;52.272;13.356;2024-03-22T11:50:13;13.60;;;8.02;;
37051;SDS011;22964;52.272;13.356;2024-03-22T11:52:42;13.18;;;7.80;;
37051;SDS011;22964;52.272;13.356;2024-03-22T11:55:12;14.18;;;7.90;;
37051;SDS011;22964;52.272;13.356;2024-03-22T11:57:38;14.05;;;7.70;;
37051;SDS011;22964;52.272;13.356;2024-03-22T12:00:05;15.50;;;8.18;;
37051;SDS011;22964;52.272;13.356;2024-03-22T12:02:40;15.18;;;7.75;;
37051;SDS011;22964;52.272;13.356;2024-03-22T12:05:09;14.82;;;8.70;;
37051;SDS011;22964;52.272;13.356;2024-03-22T12:07:36;14.23;;;8.13;;
37051;SDS011;22964;52.272;13.356;2024-03-22T12:10:02;13.30;;;7.93;;
37051;SDS011;22964;52.272;13.356;2024-03-22T12:12:29;13.07;;;8.15;;
37051;SDS011;22964;52.272;13.356;2024-03-22T12:14:55;16.65;;;8.38;;
37051;SDS011;22964;52.272;13.356;2024-03-22T12:17:21;13.65;;;8.13;;
37051;SDS011;22964;52.272;13.356;2024-03-22T12:19:46;12.95;;;8.25;;
37051;SDS011;22964;52.272;13.356;2024-03-22T12:22:12;12.80;;;7.32;;
37051;SDS011;22964;52.272;13.356;2024-03-22T12:24:38;14.77;;;7.97;;
37051;SDS011;22964;52.272;13.356;2024-03-22T12:27:04;15.80;;;8.10;;
37051;SDS011;22964;52.272;13.356;2024-03-22T12:29:33;12.98;;;8.07;;
37051;SDS011;22964;52.272;13.356;2024-03-22T12:31:59;19.65;;;8.02;;
37051;SDS011;22964;52.272;13.356;2024-03-22T12:34:31;15.43;;;8.40;;
37051;SDS011;22964;52.272;13.356;2024-03-22T12:36:58;13.65;;;8.10;;
37051;SDS011;22964;52.272;13.356;2024-03-22T12:39:25;13.55;;;7.82;;
37051;SDS011;22964;52.272;13.356;2024-03-22T12:41:50;15.85;;;8.65;;
37051;SDS011;22964;52.272;13.356;2024-03-22T12:44:16;14.07;;;7.82;;
37051;SDS011;22964;52.272;13.356;2024-03-22T12:46:42;13.32;;;7.65;;
37051;SDS011;22964;52.272;13.356;2024-03-22T12:49:09;13.07;;;7.72;;
37051;SDS011;22964;52.272;13.356;2024-03-22T12:51:35;11.32;;;7.05;;
37051;SDS011;22964;52.272;13.356;2024-03-22T12:54:03;11.18;;;5.82;;
37051;SDS011;22964;52.272;13.356;2024-03-22T12:56:30;12.88;;;7.07;;
37051;SDS011;22964;52.272;13.356;2024-03-22T12:58:56;11.70;;;6.68;;
37051;SDS011;22964;52.272;13.356;2024-03-22T13:01:22;13.68;;;7.25;;
37051;SDS011;22964;52.272;13.356;2024-03-22T13:03:47;12.80;;;6.72;;
37051;SDS011;22964;52.272;13.356;2024-03-22T13:06:13;12.63;;;7.10;;
37051;SDS011;22964;52.272;13.356;2024-03-22T13:08:39;12.82;;;6.88;;
37051;SDS011;22964;52.272;13.356;2024-03-22T13:11:05;12.35;;;6.90;;
37051;SDS011;22964;52.272;13.356;2024-03-22T13:13:34;12.45;;;6.80;;
37051;SDS011;22964;52.272;13.356;2024-03-22T13:16:00;15.75;;;7.40;;
37051;SDS011;22964;52.272;13.356;2024-03-22T13:18:28;14.32;;;7.60;;
37051;SDS011;22964;52.272;13.356;2024-03-22T13:20:54;24.10;;;8.95;;
37051;SDS011;22964;52.272;13.356;2024-03-22T13:23:20;14.52;;;7.57;;
37051;SDS011;22964;52.272;13.356;2024-03-22T13:25:45;13.43;;;7.00;;
37051;SDS011;22964;52.272;13.356;2024-03-22T13:28:11;12.70;;;6.72;;
37051;SDS011;22964;52.272;13.356;2024-03-22T13:30:37;14.18;;;6.80;;
37051;SDS011;22964;52.272;13.356;2024-03-22T13:33:03;11.07;;;7.05;;
37051;SDS011;22964;52.272;13.356;2024-03-22T13:35:29;14.20;;;7.50;;
37051;SDS011;22964;52.272;13.356;2024-03-22T13:37:55;14.38;;;8.00;;
37051;SDS011;22964;52.272;13.356;2024-03-22T13:40:21;13.82;;;7.95;;
37051;SDS011;22964;52.272;13.356;2024-03-22T13:42:47;14.88;;;8.30;;
37051;SDS011;22964;52.272;13.356;2024-03-22T13:45:12;14.77;;;7.93;;
37051;SDS011;22964;52.272;13.356;2024-03-22T13:47:38;15.32;;;7.63;;
37051;SDS011;22964;52.272;13.356;2024-03-22T13:50:08;15.10;;;8.38;;
37051;SDS011;22964;52.272;13.356;2024-03-22T13:52:34;14.23;;;8.38;;
37051;SDS011;22964;52.272;13.356;2024-03-22T13:55:02;17.33;;;8.68;;
37051;SDS011;22964;52.272;13.356;2024-03-22T13:57:29;16.85;;;8.43;;
37051;SDS011;22964;52.272;13.356;2024-03-22T13:59:56;14.50;;;8.05;;
37051;SDS011;22964;52.272;13.356;2024-03-22T14:02:22;15.38;;;7.85;;
37051;SDS011;22964;52.272;13.356;2024-03-22T14:04:47;14.18;;;7.82;;
37051;SDS011;22964;52.272;13.356;2024-03-22T14:07:13;12.80;;;7.32;;
37051;SDS011;22964;52.272;13.356;2024-03-22T14:09:40;12.73;;;6.82;;
37051;SDS011;22964;52.272;13.356;2024-03-22T14:12:06;11.82;;;6.75;;
37051;SDS011;22964;52.272;13.356;2024-03-22T14:14:32;13.73;;;7.28;;
37051;SDS011;22964;52.272;13.356;2024-03-22T14:16:59;16.13;;;7.03;;